Time;durP1;ratioP1;P1;durP2;ratioP2;P2;SDS_P1;SDS_P2;PMS_P1;PMS_P2;Temp;Humidity;BMP_temperature;BMP_pressure;BME280_temperature;BME280_humidity;BME280_pressure;Samples;Min_cycle;Max_cycle;Signal;HPM_P1;HPM_P2
2023/04/08 00:00:51;;;;;;;0.15;0.15;;;6.10;99.90;;;;;;5065130;28;20398;-75
2023/04/08 00:03:17;;;;;;;0.20;0.20;;;6.10;99.90;;;;;;5077461;28;20096;-74
2023/04/08 00:05:43;;;;;;;0.20;0.20;;;6.10;99.90;;;;;;5077186;28;20021;-75
2023/04/08 00:08:08;;;;;;;0.17;0.17;;;6.10;99.90;;;;;;5078161;28;20040;-76
2023/04/08 00:10:34;;;;;;;0.20;0.20;;;6.10;99.90;;;;;;5077477;28;20051;-75
2023/04/08 00:12:59;;;;;;;0.20;0.20;;;6.10;99.90;;;;;;5081576;22;20072;-79
2023/04/08 00:15:25;;;;;;;0.20;0.20;;;6.10;99.90;;;;;;5060286;28;20036;-79
2023/04/08 00:17:53;;;;;;;0.20;0.20;;;6.10;99.90;;;;;;5056827;28;20093;-77
2023/04/08 00:20:19;;;;;;;0.20;0.20;;;6.00;99.90;;;;;;5042921;28;20025;-80
2023/04/08 00:22:45;;;;;;;0.20;0.20;;;6.00;99.90;;;;;;5060330;28;20025;-76
2023/04/08 00:25:11;;;;;;;0.20;0.20;;;6.00;99.90;;;;;;5039908;28;20052;-79
2023/04/08 00:27:39;;;;;;;0.20;0.20;;;6.00;99.90;;;;;;5039371;28;20029;-80
2023/04/08 00:30:05;;;;;;;0.10;0.10;;;5.90;99.90;;;;;;5067143;28;20028;-79
2023/04/08 00:32:31;;;;;;;0.20;0.20;;;5.90;99.90;;;;;;5078198;23;20114;-78
2023/04/08 00:34:57;;;;;;;0.15;0.15;;;5.90;99.90;;;;;;5060769;28;20453;-78
2023/04/08 00:37:23;;;;;;;0.17;0.17;;;5.90;99.90;;;;;;5059722;28;20021;-79
2023/04/08 00:39:49;;;;;;;0.20;0.20;;;5.90;99.90;;;;;;5059768;28;20033;-78
2023/04/08 00:42:16;;;;;;;0.20;0.20;;;5.90;99.90;;;;;;5059629;28;20033;-78
2023/04/08 00:44:41;;;;;;;0.20;0.20;;;5.90;99.90;;;;;;5060725;28;20112;-78
2023/04/08 00:47:11;;;;;;;0.20;0.20;;;5.90;99.90;;;;;;5060916;28;20063;-78
2023/04/08 00:49:39;;;;;;;0.20;0.20;;;5.80;99.90;;;;;;5060265;28;20056;-78
2023/04/08 00:52:05;;;;;;;0.20;0.20;;;5.90;99.90;;;;;;5059734;28;20051;-77
2023/04/08 00:54:30;;;;;;;0.20;0.20;;;5.90;99.90;;;;;;5059836;28;20021;-78
2023/04/08 00:56:58;;;;;;;0.20;0.20;;;5.90;99.90;;;;;;5060209;28;20048;-79
2023/04/08 00:59:25;;;;;;;0.20;0.20;;;5.90;99.90;;;;;;5044814;28;20051;-77
2023/04/08 01:02:05;;;;;;;0.20;0.20;;;5.90;99.90;;;;;;5046335;28;20037;-78
2023/04/08 01:04:43;;;;;;;0.20;0.20;;;5.90;99.90;;;;;;5039539;28;20735;-78
2023/04/08 01:07:25;;;;;;;0.20;0.20;;;5.90;99.90;;;;;;5054286;28;20056;-78
2023/04/08 01:09:56;;;;;;;0.15;0.15;;;5.90;99.90;;;;;;5059975;28;20044;-77
2023/04/08 01:12:39;;;;;;;0.15;0.15;;;5.90;99.90;;;;;;5059925;28;20122;-77
2023/04/08 01:15:07;;;;;;;0.20;0.20;;;5.80;99.90;;;;;;5060181;28;20074;-78
2023/04/08 01:17:36;;;;;;;0.20;0.20;;;5.80;99.90;;;;;;5058685;28;20047;-78
2023/04/08 01:20:03;;;;;;;0.20;0.20;;;5.70;99.90;;;;;;5060798;28;20036;-79
2023/04/08 01:23:00;;;;;;;0.30;0.30;;;5.60;99.90;;;;;;5060042;28;20025;-78
2023/04/08 01:25:34;;;;;;;0.20;0.20;;;5.50;99.90;;;;;;5058169;28;20028;-78
2023/04/08 01:28:23;;;;;;;0.20;0.20;;;5.40;99.90;;;;;;5038002;28;20030;-77
2023/04/08 01:30:53;;;;;;;0.20;0.20;;;5.30;99.90;;;;;;5017743;28;20080;-77
2023/04/08 01:33:27;;;;;;;0.30;0.30;;;5.20;99.90;;;;;;5020105;28;20064;-79
2023/04/08 01:35:56;;;;;;;0.20;0.20;;;5.10;99.90;;;;;;5019975;28;20041;-78
2023/04/08 01:38:25;;;;;;;0.20;0.20;;;5.00;99.90;;;;;;5019921;28;20504;-80
2023/04/08 01:40:52;;;;;;;0.20;0.20;;;4.90;99.90;;;;;;5034103;28;20030;-79
2023/04/08 01:43:18;;;;;;;0.20;0.20;;;5.00;99.90;;;;;;5045525;28;20071;-80
2023/04/08 01:45:53;;;;;;;0.25;0.25;;;5.00;99.90;;;;;;5059725;28;20382;-80
2023/04/08 01:48:19;;;;;;;0.22;0.22;;;5.10;99.90;;;;;;5057990;28;20050;-78
2023/04/08 01:50:50;;;;;;;0.20;0.20;;;5.20;99.90;;;;;;5058697;28;20017;-78
2023/04/08 01:53:16;;;;;;;0.13;0.13;;;5.20;99.90;;;;;;5057450;28;20021;-77
2023/04/08 01:55:42;;;;;;;0.10;0.10;;;5.30;99.90;;;;;;5059451;28;20048;-77
2023/04/08 01:58:13;;;;;;;0.15;0.15;;;5.30;99.90;;;;;;5059524;28;20394;-78
2023/04/08 02:00:42;;;;;;;0.20;0.20;;;5.40;99.90;;;;;;5051665;28;20040;-79
2023/04/08 02:03:11;;;;;;;0.20;0.20;;;5.40;99.90;;;;;;5059791;22;20057;-79
2023/04/08 02:05:36;;;;;;;0.20;0.20;;;5.40;99.90;;;;;;5055666;28;20048;-78
2023/04/08 02:08:02;;;;;;;0.20;0.20;;;5.50;99.90;;;;;;5054830;28;20051;-77
2023/04/08 02:10:27;;;;;;;0.20;0.20;;;5.50;99.90;;;;;;5058461;28;20036;-78
2023/04/08 02:12:56;;;;;;;0.10;0.10;;;5.50;99.90;;;;;;5058295;28;20024;-79
2023/04/08 02:15:35;;;;;;;0.20;0.20;;;5.60;99.90;;;;;;5058541;28;20517;-77
2023/04/08 02:18:27;;;;;;;0.20;0.20;;;5.60;99.90;;;;;;5058194;28;20039;-78
2023/04/08 02:21:01;;;;;;;0.20;0.20;;;5.60;99.90;;;;;;5054326;28;20044;-78
2023/04/08 02:23:28;;;;;;;0.10;0.10;;;5.60;99.90;;;;;;5058079;28;20056;-78
2023/04/08 02:25:57;;;;;;;0.30;0.30;;;5.70;99.90;;;;;;5058139;28;20032;-77
2023/04/08 02:28:25;;;;;;;0.20;0.20;;;5.70;99.90;;;;;;5040008;28;20076;-78
2023/04/08 02:30:53;;;;;;;0.20;0.20;;;5.70;99.90;;;;;;5058152;28;20028;-79
2023/04/08 02:33:21;;;;;;;0.28;0.28;;;5.70;99.90;;;;;;5057948;28;20071;-79
2023/04/08 02:35:50;;;;;;;0.20;0.20;;;5.70;99.90;;;;;;5057856;28;20029;-79
2023/04/08 02:38:15;;;;;;;0.30;0.30;;;5.70;99.90;;;;;;5058765;28;20029;-79
2023/04/08 02:40:41;;;;;;;0.20;0.20;;;5.70;99.90;;;;;;5043988;28;20063;-79
2023/04/08 02:43:07;;;;;;;0.10;0.10;;;5.70;99.90;;;;;;5062134;28;20032;-79
2023/04/08 02:45:39;;;;;;;0.20;0.20;;;5.70;99.90;;;;;;5061566;28;20025;-79
2023/04/08 02:48:05;;;;;;;0.20;0.20;;;5.70;99.90;;;;;;5061920;28;20552;-77
2023/04/08 02:50:38;;;;;;;0.20;0.20;;;5.70;99.90;;;;;;5062463;28;20025;-78
2023/04/08 02:53:07;;;;;;;0.20;0.20;;;5.70;99.90;;;;;;5061201;28;20031;-78
2023/04/08 02:55:35;;;;;;;0.20;0.20;;;5.70;99.90;;;;;;5062502;28;20104;-78
2023/04/08 02:58:01;;;;;;;0.10;0.10;;;5.70;99.90;;;;;;5062130;28;20036;-79
2023/04/08 03:00:26;;;;;;;0.20;0.20;;;5.80;99.90;;;;;;5061833;28;20053;-78
2023/04/08 03:02:52;;;;;;;0.20;0.20;;;5.80;99.90;;;;;;5059261;28;20037;-78
2023/04/08 03:05:18;;;;;;;0.20;0.20;;;5.80;99.90;;;;;;5061234;28;20021;-78
2023/04/08 03:07:43;;;;;;;0.20;0.20;;;5.80;99.90;;;;;;5041240;28;20074;-79
2023/04/08 03:10:09;;;;;;;0.20;0.20;;;5.80;99.90;;;;;;5061323;28;20021;-78
2023/04/08 03:12:35;;;;;;;0.20;0.20;;;5.80;99.90;;;;;;5067576;22;20406;-79
2023/04/08 03:15:02;;;;;;;0.20;0.20;;;5.80;99.90;;;;;;5061753;28;20018;-78
2023/04/08 03:17:33;;;;;;;0.20;0.20;;;5.80;99.90;;;;;;5060999;28;20013;-78
2023/04/08 03:20:20;;;;;;;0.20;0.20;;;5.80;99.90;;;;;;5061886;28;20024;-78
2023/04/08 03:22:52;;;;;;;0.20;0.20;;;5.80;99.90;;;;;;5061022;28;20112;-79
2023/04/08 03:25:23;;;;;;;0.20;0.20;;;5.80;99.90;;;;;;5062198;28;20039;-77
2023/04/08 03:27:49;;;;;;;0.20;0.20;;;5.60;99.90;;;;;;5043754;28;20032;-79
2023/04/08 03:30:15;;;;;;;0.10;0.10;;;5.70;99.90;;;;;;5060035;28;20503;-78
2023/04/08 03:32:40;;;;;;;0.20;0.20;;;5.70;99.90;;;;;;5059035;28;20056;-79
2023/04/08 03:35:14;;;;;;;0.20;0.20;;;5.70;99.90;;;;;;5062018;28;20021;-78
2023/04/08 03:37:39;;;;;;;0.20;0.20;;;5.70;99.90;;;;;;5033825;28;20398;-77
2023/04/08 03:40:05;;;;;;;0.10;0.10;;;5.70;99.90;;;;;;5041735;28;20025;-79
2023/04/08 03:42:31;;;;;;;0.10;0.10;;;5.60;99.90;;;;;;5023774;28;20079;-79
2023/04/08 03:44:57;;;;;;;0.22;0.22;;;5.60;99.90;;;;;;5041511;28;20029;-78
2023/04/08 03:47:22;;;;;;;0.25;0.25;;;5.60;99.90;;;;;;5033775;28;20051;-78
2023/04/08 03:49:48;;;;;;;0.20;0.20;;;5.70;99.90;;;;;;5060988;28;20474;-78
2023/04/08 03:52:13;;;;;;;0.20;0.20;;;5.60;99.90;;;;;;5060281;28;20088;-79
2023/04/08 03:54:39;;;;;;;0.20;0.20;;;5.60;99.90;;;;;;5044333;28;20493;-78
2023/04/08 03:57:04;;;;;;;0.20;0.20;;;5.60;99.90;;;;;;5060906;28;20036;-77
2023/04/08 03:59:32;;;;;;;0.20;0.20;;;5.60;99.90;;;;;;5043486;28;20028;-78
2023/04/08 04:01:58;;;;;;;0.20;0.20;;;5.60;99.90;;;;;;5091559;22;20383;-78
2023/04/08 04:04:23;;;;;;;0.25;0.25;;;5.70;99.90;;;;;;5060943;28;20028;-77
2023/04/08 04:06:49;;;;;;;0.20;0.20;;;5.60;99.90;;;;;;5042301;28;20116;-78
2023/04/08 04:09:17;;;;;;;0.30;0.30;;;5.60;99.90;;;;;;5060538;28;20426;-78
2023/04/08 04:11:45;;;;;;;0.20;0.20;;;5.60;99.90;;;;;;5043104;28;20486;-79
2023/04/08 04:14:11;;;;;;;0.20;0.20;;;5.60;99.90;;;;;;5043226;28;20025;-79
2023/04/08 04:16:37;;;;;;;0.10;0.10;;;5.60;99.90;;;;;;5060476;28;20501;-78
2023/04/08 04:19:02;;;;;;;0.20;0.20;;;5.60;99.90;;;;;;5057791;28;20025;-77
2023/04/08 04:24:03;;;;;;;0.15;0.15;;;5.60;99.90;;;;;;4764826;26;20123;-79
2023/04/08 04:26:31;;;;;;;0.15;0.15;;;5.70;99.90;;;;;;5040546;28;20022;-80
2023/04/08 04:28:56;;;;;;;0.20;0.20;;;5.70;99.90;;;;;;5026094;28;20036;-79
2023/04/08 04:31:26;;;;;;;0.20;0.20;;;5.70;99.90;;;;;;5021172;28;20169;-78
2023/04/08 04:33:52;;;;;;;0.20;0.20;;;5.70;99.90;;;;;;5039940;28;20033;-78
2023/04/08 04:36:18;;;;;;;0.20;0.20;;;5.80;99.90;;;;;;5040261;28;20395;-78
2023/04/08 04:38:47;;;;;;;0.20;0.20;;;5.80;99.90;;;;;;5038387;28;20028;-78
2023/04/08 04:41:14;;;;;;;0.10;0.10;;;5.80;99.90;;;;;;5038519;28;20036;-77
2023/04/08 04:43:40;;;;;;;0.20;0.20;;;5.80;99.90;;;;;;5039067;28;20026;-79
2023/04/08 04:46:07;;;;;;;0.20;0.20;;;5.80;99.90;;;;;;5040322;28;20029;-76
2023/04/08 04:48:36;;;;;;;0.20;0.20;;;5.80;99.90;;;;;;5039321;28;20028;-78
2023/04/08 04:51:06;;;;;;;0.20;0.20;;;5.80;99.90;;;;;;5039608;28;20026;-76
2023/04/08 04:53:32;;;;;;;0.20;0.20;;;5.80;99.90;;;;;;5040108;28;20021;-77
2023/04/08 04:56:00;;;;;;;0.20;0.20;;;5.80;99.90;;;;;;5040069;28;20026;-78
2023/04/08 04:58:25;;;;;;;0.20;0.20;;;5.80;99.90;;;;;;5038860;28;20018;-79
2023/04/08 05:00:51;;;;;;;0.20;0.20;;;5.80;99.90;;;;;;5022711;28;20028;-78
2023/04/08 05:03:18;;;;;;;0.20;0.20;;;5.90;99.90;;;;;;5039341;28;20483;-77
2023/04/08 05:05:44;;;;;;;0.20;0.20;;;5.90;99.90;;;;;;5021812;28;20048;-78
2023/04/08 05:08:10;;;;;;;0.20;0.20;;;5.90;99.90;;;;;;5037902;28;20487;-78
2023/04/08 05:10:35;;;;;;;0.20;0.20;;;5.90;99.90;;;;;;5021830;28;20376;-79
2023/04/08 05:13:03;;;;;;;0.10;0.10;;;5.90;99.90;;;;;;5039085;28;20077;-78
2023/04/08 05:15:28;;;;;;;0.15;0.15;;;5.90;99.90;;;;;;5021726;28;20030;-78
2023/04/08 05:17:54;;;;;;;0.30;0.30;;;5.90;99.90;;;;;;5021509;28;20017;-78
2023/04/08 05:20:19;;;;;;;0.20;0.20;;;5.90;99.90;;;;;;5039423;28;20045;-79
2023/04/08 05:22:45;;;;;;;0.20;0.20;;;5.90;99.90;;;;;;5021544;28;20033;-78
2023/04/08 05:25:11;;;;;;;0.10;0.10;;;6.00;99.90;;;;;;5040145;28;20030;-79
2023/04/08 05:27:37;;;;;;;0.20;0.20;;;6.00;99.90;;;;;;5038075;28;20025;-78
2023/04/08 05:30:03;;;;;;;0.10;0.10;;;6.00;99.90;;;;;;5039237;28;20033;-79
2023/04/08 05:32:29;;;;;;;0.10;0.10;;;6.00;99.90;;;;;;5039297;28;20022;-79
2023/04/08 05:34:54;;;;;;;0.20;0.20;;;6.10;99.90;;;;;;5039006;28;20018;-78
2023/04/08 05:37:20;;;;;;;0.10;0.10;;;6.10;99.90;;;;;;5038482;28;20091;-79
2023/04/08 05:39:45;;;;;;;0.20;0.20;;;6.10;99.90;;;;;;5038741;28;20104;-78
2023/04/08 05:42:12;;;;;;;0.13;0.13;;;6.20;99.90;;;;;;5039299;28;20047;-77
2023/04/08 05:44:40;;;;;;;0.10;0.10;;;6.20;99.90;;;;;;5038976;28;20021;-77
2023/04/08 05:47:06;;;;;;;0.20;0.20;;;6.30;99.90;;;;;;5038022;28;20105;-77
2023/04/08 05:49:32;;;;;;;0.10;0.10;;;6.40;99.90;;;;;;5021610;28;20064;-78
2023/04/08 05:51:58;;;;;;;0.20;0.20;;;6.40;99.90;;;;;;5038748;28;20044;-79
2023/04/08 05:54:23;;;;;;;0.10;0.10;;;6.50;99.90;;;;;;5029056;28;20033;-78
2023/04/08 05:56:49;;;;;;;0.20;0.20;;;6.60;99.90;;;;;;5019168;28;20026;-77
2023/04/08 05:59:17;;;;;;;0.20;0.20;;;6.60;99.90;;;;;;5022135;28;20057;-78
2023/04/08 06:01:43;;;;;;;0.20;0.20;;;6.60;99.90;;;;;;5019752;28;20059;-78
2023/04/08 06:04:08;;;;;;;0.13;0.13;;;6.70;99.90;;;;;;5035112;28;20033;-78
2023/04/08 06:06:37;;;;;;;0.10;0.10;;;6.70;99.90;;;;;;5022063;28;20022;-79
2023/04/08 06:09:02;;;;;;;0.20;0.20;;;6.70;99.90;;;;;;5018886;28;20022;-78
2023/04/08 06:11:28;;;;;;;0.25;0.25;;;6.80;99.90;;;;;;5010910;28;20025;-79
2023/04/08 06:13:54;;;;;;;0.30;0.30;;;6.90;99.90;;;;;;5062660;22;20555;-73
2023/04/08 06:16:19;;;;;;;0.10;0.10;;;6.90;99.90;;;;;;5055381;28;20028;-74
2023/04/08 06:18:45;;;;;;;0.10;0.10;;;7.00;99.90;;;;;;5053950;28;20495;-75
2023/04/08 06:21:10;;;;;;;0.30;0.30;;;7.00;99.90;;;;;;5055091;28;20040;-75
2023/04/08 06:23:36;;;;;;;0.10;0.10;;;7.10;99.90;;;;;;5044745;23;20037;-75
2023/04/08 06:26:02;;;;;;;0.20;0.20;;;7.20;99.90;;;;;;5016089;28;20022;-74
2023/04/08 06:28:30;;;;;;;0.10;0.10;;;7.30;99.90;;;;;;5015392;28;20018;-73
2023/04/08 06:30:56;;;;;;;0.17;0.17;;;7.40;99.90;;;;;;4997535;28;20496;-74
2023/04/08 06:33:22;;;;;;;0.20;0.20;;;7.40;99.90;;;;;;5015449;28;20045;-74
2023/04/08 06:35:47;;;;;;;0.10;0.10;;;7.50;99.90;;;;;;5015693;28;20022;-74
2023/04/08 06:38:13;;;;;;;0.20;0.20;;;7.50;99.90;;;;;;5030528;28;20021;-75
2023/04/08 06:40:39;;;;;;;0.20;0.20;;;7.60;99.90;;;;;;5017415;28;20514;-74
2023/04/08 06:43:06;;;;;;;0.15;0.15;;;7.70;99.90;;;;;;5034572;28;20025;-74
2023/04/08 06:45:32;;;;;;;0.20;0.20;;;7.70;99.90;;;;;;5035137;28;20503;-75
2023/04/08 06:47:57;;;;;;;0.20;0.20;;;7.80;99.90;;;;;;5035274;28;20075;-74
2023/04/08 06:50:23;;;;;;;0.20;0.20;;;7.80;99.90;;;;;;5035045;28;20068;-75
2023/04/08 06:52:49;;;;;;;0.10;0.10;;;7.80;99.90;;;;;;5034501;28;20030;-73
2023/04/08 06:55:14;;;;;;;0.30;0.30;;;7.70;99.90;;;;;;5034820;28;20025;-75
2023/04/08 06:57:40;;;;;;;0.20;0.20;;;7.60;99.90;;;;;;5016807;28;20060;-74
2023/04/08 07:00:06;;;;;;;0.20;0.20;;;7.60;99.90;;;;;;5035425;28;20029;-74
2023/04/08 07:02:34;;;;;;;0.17;0.17;;;7.60;99.90;;;;;;5034770;28;20033;-74
2023/04/08 07:05:00;;;;;;;0.20;0.20;;;7.50;99.90;;;;;;5034095;28;20079;-74
2023/04/08 07:07:25;;;;;;;0.20;0.20;;;7.50;99.90;;;;;;5040828;28;20417;-74
2023/04/08 07:09:51;;;;;;;0.20;0.20;;;7.50;99.90;;;;;;5055206;28;20032;-75
2023/04/08 07:12:16;;;;;;;0.20;0.20;;;7.50;99.90;;;;;;5051321;28;20056;-74
2023/04/08 07:14:42;;;;;;;0.20;0.20;;;7.50;99.90;;;;;;5034835;28;20064;-74
2023/04/08 07:17:10;;;;;;;0.10;0.10;;;7.50;99.90;;;;;;5034677;28;20026;-74
2023/04/08 07:19:36;;;;;;;0.20;0.20;;;7.60;99.90;;;;;;5033676;28;20394;-75
2023/04/08 07:22:02;;;;;;;0.28;0.28;;;7.60;99.90;;;;;;5017114;28;20037;-74
2023/04/08 07:24:27;;;;;;;0.20;0.20;;;7.70;99.90;;;;;;5034872;28;20038;-74
2023/04/08 07:26:55;;;;;;;0.20;0.20;;;7.80;99.90;;;;;;5038069;28;20025;-75
2023/04/08 07:29:21;;;;;;;0.10;0.10;;;8.00;99.90;;;;;;5037788;28;20053;-74
2023/04/08 07:31:46;;;;;;;0.10;0.10;;;8.00;99.90;;;;;;5038607;28;20028;-75
2023/04/08 07:34:12;;;;;;;0.20;0.20;;;8.20;99.90;;;;;;5039236;28;20378;-75
2023/04/08 07:36:38;;;;;;;0.25;0.25;;;8.30;99.90;;;;;;5036980;28;20034;-74
2023/04/08 07:39:03;;;;;;;0.20;0.20;;;8.50;99.90;;;;;;5038157;28;20025;-74
2023/04/08 07:41:29;;;;;;;0.20;0.20;;;8.40;99.90;;;;;;5038235;28;20053;-75
2023/04/08 07:43:55;;;;;;;0.10;0.10;;;8.50;99.90;;;;;;5037761;28;20060;-74
2023/04/08 07:46:20;;;;;;;0.20;0.20;;;8.50;99.90;;;;;;5018403;28;20025;-75
2023/04/08 07:48:46;;;;;;;0.20;0.20;;;8.70;99.90;;;;;;5024347;28;20053;-74
2023/04/08 07:51:12;;;;;;;0.10;0.10;;;8.80;99.90;;;;;;5018064;28;20026;-74
2023/04/08 07:53:39;;;;;;;0.15;0.15;;;8.80;99.90;;;;;;5019346;28;20120;-75
2023/04/08 07:56:11;;;;;;;0.28;0.28;;;8.80;99.90;;;;;;5018764;28;20100;-74
2023/04/08 07:58:36;;;;;;;0.10;0.10;;;8.90;99.90;;;;;;5007666;28;20475;-74
2023/04/08 08:01:02;;;;;;;0.10;0.10;;;8.90;99.90;;;;;;5037705;28;20052;-74
2023/04/08 08:03:28;;;;;;;0.20;0.20;;;9.00;99.90;;;;;;5037219;28;20025;-74
2023/04/08 08:05:53;;;;;;;0.10;0.10;;;9.30;99.90;;;;;;5040935;28;20025;-74
2023/04/08 08:08:19;;;;;;;0.20;0.20;;;9.70;99.90;;;;;;5057999;28;20104;-73
2023/04/08 08:10:44;;;;;;;0.10;0.10;;;9.80;99.90;;;;;;5056969;28;20039;-75
2023/04/08 08:13:11;;;;;;;0.20;0.20;;;9.80;99.90;;;;;;5053897;28;20079;-74
2023/04/08 08:15:37;;;;;;;0.20;0.20;;;9.80;99.90;;;;;;5037701;28;20017;-75
2023/04/08 08:18:02;;;;;;;0.20;0.20;;;9.70;99.90;;;;;;5037311;28;20026;-75
2023/04/08 08:20:28;;;;;;;0.20;0.20;;;9.60;99.90;;;;;;5036427;28;20061;-74
2023/04/08 08:22:55;;;;;;;0.20;0.20;;;9.60;99.90;;;;;;5018995;28;20037;-75
2023/04/08 08:25:21;;;;;;;0.10;0.10;;;10.00;99.90;;;;;;5019547;28;20033;-75
2023/04/08 08:27:47;;;;;;;0.10;0.10;;;10.50;99.90;;;;;;5036784;28;20035;-75
2023/04/08 08:30:12;;;;;;;0.10;0.10;;;10.90;99.90;;;;;;5036912;28;20033;-74
2023/04/08 08:32:38;;;;;;;0.15;0.15;;;11.30;99.90;;;;;;5037174;28;20027;-75
2023/04/08 08:35:04;;;;;;;0.20;0.20;;;11.40;99.90;;;;;;5036982;28;20029;-75
2023/04/08 08:37:29;;;;;;;0.10;0.10;;;11.30;99.90;;;;;;5036255;28;20372;-74
2023/04/08 08:39:55;;;;;;;0.13;0.13;;;11.40;99.90;;;;;;5035679;28;20108;-74
2023/04/08 08:42:25;;;;;;;0.20;0.20;;;11.50;99.90;;;;;;5037073;28;20786;-74
2023/04/08 08:44:51;;;;;;;0.10;0.10;;;11.50;99.90;;;;;;5037083;28;20033;-75
2023/04/08 08:47:17;;;;;;;0.10;0.10;;;11.60;99.90;;;;;;5036870;28;20059;-75
2023/04/08 08:49:44;;;;;;;0.15;0.15;;;11.80;99.90;;;;;;5036936;28;20108;-74
2023/04/08 08:52:10;;;;;;;0.20;0.20;;;11.80;99.90;;;;;;5036967;28;20417;-75
2023/04/08 08:54:36;;;;;;;0.20;0.20;;;12.00;99.90;;;;;;5036596;28;20107;-74
2023/04/08 08:57:02;;;;;;;0.20;0.20;;;12.00;99.90;;;;;;5036291;28;20025;-74
2023/04/08 08:59:27;;;;;;;0.10;0.10;;;11.90;99.90;;;;;;5036046;28;20040;-74
2023/04/08 09:01:53;;;;;;;0.10;0.10;;;11.90;99.90;;;;;;5030500;28;20052;-74
2023/04/08 09:04:21;;;;;;;0.20;0.20;;;12.00;99.90;;;;;;5035392;28;20368;-74
2023/04/08 09:07:08;;;;;;;0.10;0.10;;;12.00;99.90;;;;;;5036536;28;20025;-74
2023/04/08 09:09:48;;;;;;;0.20;0.20;;;12.00;99.90;;;;;;5036719;28;20021;-75
2023/04/08 09:12:14;;;;;;;0.20;0.20;;;11.90;99.90;;;;;;5036264;28;20025;-74
2023/04/08 09:14:39;;;;;;;0.15;0.15;;;11.70;99.90;;;;;;5036482;28;20075;-74
2023/04/08 09:17:05;;;;;;;0.13;0.13;;;11.90;99.90;;;;;;5042651;28;20017;-74
2023/04/08 09:19:30;;;;;;;0.10;0.10;;;12.10;99.90;;;;;;5056022;28;20022;-75
2023/04/08 09:22:09;;;;;;;0.10;0.10;;;12.10;99.90;;;;;;5055910;28;20560;-75
2023/04/08 09:24:36;;;;;;;0.10;0.10;;;11.80;99.90;;;;;;5055797;28;20037;-75
2023/04/08 09:27:02;;;;;;;0.10;0.10;;;11.80;99.90;;;;;;5055067;28;20029;-75
2023/04/08 09:29:28;;;;;;;0.20;0.20;;;11.90;99.90;;;;;;5040434;28;20481;-74
2023/04/08 09:31:55;;;;;;;0.10;0.10;;;12.00;99.90;;;;;;5035107;28;20099;-73
2023/04/08 09:34:22;;;;;;;0.20;0.20;;;12.30;99.90;;;;;;5034536;28;20021;-73
2023/04/08 09:36:48;;;;;;;0.10;0.10;;;12.70;99.90;;;;;;5035076;28;20018;-73
2023/04/08 09:39:14;;;;;;;0.13;0.13;;;13.20;99.90;;;;;;5035329;28;20083;-74
2023/04/08 09:41:41;;;;;;;0.20;0.20;;;13.40;99.90;;;;;;5034277;28;20021;-73
2023/04/08 09:44:11;;;;;;;0.10;0.10;;;13.80;99.90;;;;;;5040060;28;20033;-71
2023/04/08 09:46:39;;;;;;;0.20;0.20;;;13.80;99.90;;;;;;5053667;28;20087;-69
2023/04/08 09:49:12;;;;;;;0.10;0.10;;;13.80;99.90;;;;;;5055173;28;20093;-74
2023/04/08 09:52:02;;;;;;;0.10;0.10;;;13.70;99.90;;;;;;5055416;28;20079;-74
2023/04/08 09:54:40;;;;;;;0.10;0.10;;;13.80;99.90;;;;;;5053870;28;20021;-74
2023/04/08 09:57:13;;;;;;;0.10;0.10;;;13.90;99.90;;;;;;5015384;28;20105;-73
2023/04/08 09:59:46;;;;;;;0.17;0.17;;;14.10;99.90;;;;;;5013867;28;20081;-75
2023/04/08 10:02:18;;;;;;;0.17;0.17;;;14.20;99.90;;;;;;5016610;28;20120;-74
2023/04/08 10:04:46;;;;;;;0.10;0.10;;;14.30;99.90;;;;;;5014500;28;20022;-74
2023/04/08 10:07:13;;;;;;;0.20;0.20;;;14.40;99.90;;;;;;5026361;28;20025;-74
2023/04/08 10:09:42;;;;;;;0.20;0.20;;;14.30;99.90;;;;;;5034021;28;20037;-74
2023/04/08 10:12:07;;;;;;;0.10;0.10;;;14.40;99.90;;;;;;5034496;28;20484;-74
2023/04/08 10:14:33;;;;;;;0.10;0.10;;;14.40;99.90;;;;;;5017961;28;20099;-74
2023/04/08 10:17:34;;;;;;;0.20;0.20;;;14.20;99.90;;;;;;5015984;28;20052;-74
2023/04/08 10:20:00;;;;;;;0.20;0.20;;;14.20;99.90;;;;;;5030755;28;20029;-74
2023/04/08 10:22:28;;;;;;;0.20;0.20;;;14.30;99.90;;;;;;5034930;28;20025;-74
2023/04/08 10:25:15;;;;;;;0.10;0.10;;;14.10;99.90;;;;;;5035425;28;20033;-74
2023/04/08 10:27:42;;;;;;;0.10;0.10;;;14.20;99.90;;;;;;5034824;28;20108;-74
2023/04/08 10:30:26;;;;;;;0.10;0.10;;;14.20;99.90;;;;;;5017415;28;20025;-74
2023/04/08 10:32:55;;;;;;;;;;;14.40;99.90;;;;;;5035085;28;20025;-74
2023/04/08 10:35:41;;;;;;;0.10;0.10;;;14.50;99.90;;;;;;5035069;28;19966;-74
2023/04/08 10:38:07;;;;;;;0.10;0.10;;;14.60;99.90;;;;;;5035183;28;20018;-74
2023/04/08 10:40:37;;;;;;;0.20;0.20;;;14.70;99.90;;;;;;5035765;28;20036;-74
2023/04/08 10:43:04;;;;;;;0.10;0.10;;;14.50;99.90;;;;;;5034372;28;20032;-73
2023/04/08 10:45:30;;;;;;;0.17;0.17;;;14.40;99.90;;;;;;5032781;28;20026;-74
2023/04/08 10:47:55;;;;;;;0.10;0.10;;;14.50;99.90;;;;;;5026347;28;20033;-73
2023/04/08 10:50:23;;;;;;;0.10;0.10;;;14.50;99.90;;;;;;5015329;28;20033;-74
2023/04/08 10:52:53;;;;;;;0.10;0.10;;;14.50;99.90;;;;;;5018952;28;20022;-73
2023/04/08 10:55:25;;;;;;;0.10;0.10;;;14.80;99.90;;;;;;5034996;28;20029;-72
2023/04/08 10:57:52;;;;;;;0.13;0.13;;;15.10;99.90;;;;;;5016830;28;20030;-73
2023/04/08 11:00:19;;;;;;;0.15;0.15;;;15.30;99.90;;;;;;5035191;28;20033;-74
2023/04/08 11:02:44;;;;;;;0.10;0.10;;;15.70;99.90;;;;;;5038570;28;20038;-74
2023/04/08 11:05:10;;;;;;;0.15;0.15;;;15.70;99.90;;;;;;5039000;28;20038;-74
2023/04/08 11:07:42;;;;;;;0.10;0.10;;;16.10;99.90;;;;;;5038570;28;20022;-73
2023/04/08 11:10:08;;;;;;;0.15;0.15;;;16.00;99.90;;;;;;5031118;28;20368;-74
2023/04/08 11:12:36;;;;;;;0.20;0.20;;;16.00;99.90;;;;;;5018627;28;20414;-74
2023/04/08 11:15:03;;;;;;;0.10;0.10;;;16.00;99.90;;;;;;5018604;28;20029;-74
2023/04/08 11:17:30;;;;;;;0.10;0.10;;;16.50;99.90;;;;;;5018698;28;20399;-74
2023/04/08 11:20:01;;;;;;;0.20;0.20;;;16.70;99.90;;;;;;5018155;28;20025;-74
2023/04/08 11:22:27;;;;;;;0.20;0.20;;;17.00;99.90;;;;;;5033666;28;20116;-75
2023/04/08 11:24:55;;;;;;;0.10;0.10;;;17.40;99.90;;;;;;5037888;28;20034;-74
2023/04/08 11:27:22;;;;;;;0.10;0.10;;;17.80;99.90;;;;;;5037067;28;20023;-74
2023/04/08 11:29:48;;;;;;;0.10;0.10;;;17.70;99.90;;;;;;5018225;28;20033;-73
2023/04/08 11:32:14;;;;;;;0.10;0.10;;;17.70;99.90;;;;;;5030306;28;20071;-74
2023/04/08 11:34:43;;;;;;;0.15;0.15;;;17.70;99.90;;;;;;5038231;28;20545;-75
2023/04/08 11:37:08;;;;;;;0.10;0.10;;;17.80;99.90;;;;;;5013737;28;20168;-75
2023/04/08 11:39:41;;;;;;;0.10;0.10;;;18.00;99.90;;;;;;5017390;28;20088;-74
2023/04/08 11:42:07;;;;;;;0.10;0.10;;;17.80;99.90;;;;;;5000530;28;20095;-74
2023/04/08 11:44:32;;;;;;;0.10;0.10;;;17.80;99.90;;;;;;5020067;28;20550;-75
2023/04/08 11:46:58;;;;;;;0.20;0.20;;;17.30;99.90;;;;;;5037680;28;20085;-75
2023/04/08 11:49:24;;;;;;;0.10;0.10;;;17.70;99.90;;;;;;5036608;28;20479;-75
2023/04/08 11:51:56;;;;;;;0.10;0.10;;;18.20;99.90;;;;;;5037000;28;20105;-76
2023/04/08 11:54:29;;;;;;;0.10;0.10;;;18.10;99.90;;;;;;5037170;28;20542;-76
2023/04/08 11:56:57;;;;;;;0.10;0.10;;;18.10;99.90;;;;;;5035958;28;20025;-76
2023/04/08 11:59:23;;;;;;;0.10;0.10;;;18.80;99.90;;;;;;5037204;28;20091;-76
2023/04/08 12:01:48;;;;;;;0.10;0.10;;;19.40;99.90;;;;;;5037061;28;20439;-75
2023/04/08 12:04:14;;;;;;;0.10;0.10;;;19.80;99.90;;;;;;5037085;28;20037;-77
2023/04/08 12:06:42;;;;;;;0.10;0.10;;;20.10;99.90;;;;;;5037586;28;20368;-77
2023/04/08 12:09:08;;;;;;;0.10;0.10;;;20.20;99.90;;;;;;5038694;28;20022;-78
2023/04/08 12:11:33;;;;;;;0.10;0.10;;;20.40;99.90;;;;;;5043088;28;20029;-77
2023/04/08 12:14:08;;;;;;;0.10;0.10;;;20.20;99.90;;;;;;5124111;22;20470;-76
2023/04/08 12:16:54;;;;;;;0.10;0.10;;;20.30;99.90;;;;;;5038392;28;20032;-75
2023/04/08 12:19:22;;;;;;;0.10;0.10;;;20.50;99.90;;;;;;5055693;28;20497;-75
2023/04/08 12:21:50;;;;;;;0.10;0.10;;;20.80;99.90;;;;;;5045598;28;20040;-77
2023/04/08 12:24:16;;;;;;;0.10;0.10;;;21.40;99.90;;;;;;5054121;23;20044;-76
2023/04/08 12:26:41;;;;;;;0.03;0.03;;;21.40;99.90;;;;;;5055888;28;20021;-76
2023/04/08 12:29:10;;;;;;;0.10;0.10;;;21.70;99.90;;;;;;5056041;28;20029;-76
2023/04/08 12:31:36;;;;;;;0.10;0.10;;;21.70;99.90;;;;;;5037980;28;20046;-76
2023/04/08 12:34:01;;;;;;;0.00;0.00;;;21.90;99.90;;;;;;5054736;28;20025;-76
2023/04/08 12:36:27;;;;;;;0.00;0.00;;;21.90;99.90;;;;;;5060512;28;20024;-76
2023/04/08 12:38:52;;;;;;;0.10;0.10;;;21.90;99.90;;;;;;5075534;28;20099;-76
2023/04/08 12:41:18;;;;;;;0.00;0.00;;;22.10;99.90;;;;;;5074850;28;20020;-77
2023/04/08 12:43:44;;;;;;;0.10;0.10;;;22.30;99.90;;;;;;5075530;28;20016;-76
2023/04/08 12:46:12;;;;;;;0.10;0.10;;;22.30;99.90;;;;;;5076333;28;20529;-78
2023/04/08 12:48:38;;;;;;;0.00;0.00;;;22.50;99.90;;;;;;5048282;28;20020;-78
2023/04/08 12:51:04;;;;;;;0.00;0.00;;;22.50;99.90;;;;;;5058351;28;20029;-78
2023/04/08 12:53:29;;;;;;;0.00;0.00;;;22.50;99.90;;;;;;5041259;28;20047;-78
2023/04/08 12:55:56;;;;;;;0.00;0.00;;;22.70;99.90;;;;;;5058934;28;20024;-78
2023/04/08 12:58:25;;;;;;;0.00;0.00;;;22.90;99.90;;;;;;5040939;28;20021;-78